KPPA

Details ICAO KPPA
Name PERRY LEFORS FLD
Region United States
Timezone America/Chicago (UTC-6.0)
Plans Departing 3
Arriving 8
Stats Elevation 3,245 ft / 989 m (AMSL)
Location 35.612490° -100.997800°
Runways 3
Magnetic Variation 5.792° E
Sunrise 2017-12-14 13:47:10 UTC / 2017-12-14 07:47:10 Local
Sunset 2017-12-14 23:33:14 UTC / 2017-12-14 17:33:14 Local
Advertisement - Login to hide

Runways

ID Width Length Bearing (true) Bearing (mag) Surface Threshold Offset Overrun Length
05 75 ft / 23 m 4,496 ft / 1,370 m 59.93° 54.14° Asphalt 0 ft / 0 m 0 ft / 0 m
11 150 ft / 46 m 4,521 ft / 1,378 m 121.04° 115.25° Asphalt 0 ft / 0 m 0 ft / 0 m
17 100 ft / 30 m 5,879 ft / 1,792 m 180.02° 174.23° Asphalt 0 ft / 0 m 0 ft / 0 m
23 75 ft / 23 m 4,496 ft / 1,370 m 239.94° 234.15° Asphalt 0 ft / 0 m 0 ft / 0 m
29 150 ft / 46 m 4,521 ft / 1,378 m 301.05° 295.26° Asphalt 0 ft / 0 m 0 ft / 0 m
35 100 ft / 30 m 5,879 ft / 1,792 m 0.02° 354.23° Asphalt 0 ft / 0 m 0 ft / 0 m

Map

Weather


0- 5 10 15 20 25 30 35+ Temperature / ° C

Clouds and Precipitation
Forecast for 2017-12-14 06:00 UTC. Updated an hour ago

Ground ~20,000 ft ~40,000 ft Winds

METAR

KPPA 140635Z AUTO 02007KT 10SM CLR 06/M08 A3001 RMK AO2 T00621084

TAF

Not found

Frequencies

Recorded 118.72 MHz AWOS 3
Unicom 122.70 MHz CTAF/UNICOM
Warning: Do not use this data for real-world aviation or navigation. No guarantee of current accuracy is given.